createdAt,value
2023-05-14T15:47:23.832Z,7.00
2023-05-14T15:49:51.510Z,5.60
2023-05-14T15:52:19.243Z,5.00
2023-05-14T15:54:47.408Z,6.50
2023-05-14T15:57:16.948Z,5.00
2023-05-14T15:59:47.178Z,8.10
2023-05-14T16:02:15.481Z,4.30
2023-05-14T16:04:45.261Z,4.80
2023-05-14T16:07:13.533Z,3.90
2023-05-14T16:09:41.531Z,6.10
2023-05-14T16:12:09.473Z,4.40
2023-05-14T16:14:37.770Z,5.20
2023-05-14T16:17:06.444Z,5.10
2023-05-14T16:19:34.092Z,5.60
2023-05-14T16:22:01.852Z,5.40
2023-05-14T16:24:29.596Z,7.10
2023-05-14T16:26:57.481Z,7.90
2023-05-14T16:29:25.370Z,5.90
2023-05-14T16:31:53.190Z,6.00
2023-05-14T16:34:21.220Z,5.20
2023-05-14T16:36:48.976Z,8.70
2023-05-14T16:39:17.557Z,7.40
2023-05-14T16:41:45.578Z,7.50
2023-05-14T16:44:13.443Z,9.90
2023-05-14T16:46:41.144Z,6.60
2023-05-14T16:49:08.972Z,9.50
2023-05-14T16:51:42.259Z,9.60
2023-05-14T16:54:10.340Z,7.40
2023-05-14T16:56:38.079Z,6.60
2023-05-14T16:59:07.567Z,6.10
2023-05-14T17:01:35.956Z,6.70
2023-05-14T17:04:03.991Z,6.30
2023-05-14T17:06:32.007Z,7.10
2023-05-14T17:08:59.852Z,7.20
2023-05-14T17:11:27.714Z,7.40
2023-05-14T17:14:00.406Z,7.40
2023-05-14T17:18:56.621Z,7.90
2023-05-14T17:21:24.608Z,6.60
2023-05-14T17:23:52.392Z,9.40
2023-05-14T17:26:20.177Z,6.90
2023-05-14T17:28:48.018Z,9.80
2023-05-14T17:31:16.006Z,8.20
2023-05-14T17:33:43.843Z,7.10
2023-05-14T17:36:11.704Z,10.10
2023-05-14T17:38:39.540Z,10.00
2023-05-14T17:41:07.631Z,9.10
2023-05-14T17:43:35.790Z,7.40
2023-05-14T17:46:04.220Z,6.70
2023-05-14T17:48:32.758Z,7.50
2023-05-14T17:51:00.840Z,8.50
2023-05-14T17:53:28.741Z,9.20
2023-05-14T17:55:56.578Z,10.70
2023-05-14T17:58:24.479Z,7.40
2023-05-14T18:00:52.269Z,10.70
2023-05-14T18:03:20.638Z,15.20
2023-05-14T18:05:48.642Z,10.80
2023-05-14T18:08:17.204Z,10.20
2023-05-14T18:10:45.018Z,8.80
2023-05-14T18:13:12.727Z,9.70
2023-05-14T18:15:40.677Z,12.10
2023-05-14T18:18:08.579Z,11.80
2023-05-14T18:20:36.463Z,9.90
2023-05-14T18:23:04.721Z,12.10
2023-05-14T18:25:32.470Z,12.90
2023-05-14T18:28:00.386Z,11.10
2023-05-14T18:30:28.177Z,9.30
2023-05-14T18:32:55.941Z,9.50
2023-05-14T18:35:23.819Z,10.60
2023-05-14T18:37:51.988Z,10.30
2023-05-14T18:40:19.805Z,9.10
2023-05-14T18:42:47.731Z,7.40
2023-05-14T18:45:16.064Z,11.60
2023-05-14T18:47:44.062Z,8.10
2023-05-14T18:50:12.021Z,9.90
2023-05-14T18:52:39.963Z,8.10
2023-05-14T18:55:08.153Z,9.40
2023-05-14T18:57:36.776Z,7.30
2023-05-14T19:00:05.228Z,8.10
2023-05-14T19:02:32.972Z,8.60
2023-05-14T19:05:01.235Z,9.60
2023-05-14T19:07:30.524Z,9.80
2023-05-14T19:09:58.252Z,11.00
2023-05-14T19:12:26.926Z,9.80
2023-05-14T19:14:54.942Z,9.50
2023-05-14T19:17:22.898Z,8.90
2023-05-14T19:19:50.932Z,10.10
2023-05-14T19:22:19.540Z,9.40
2023-05-14T19:24:47.310Z,12.40
2023-05-14T19:27:16.792Z,9.80
2023-05-14T19:29:44.688Z,10.80
2023-05-14T19:32:12.498Z,10.40
2023-05-14T19:34:40.595Z,9.60
2023-05-14T19:37:08.645Z,12.60
2023-05-14T19:39:36.373Z,12.00
2023-05-14T19:42:04.478Z,11.90
2023-05-14T19:44:32.705Z,12.00
2023-05-14T19:47:00.751Z,11.70
2023-05-14T19:49:28.654Z,11.60
2023-05-14T19:51:56.659Z,11.90
2023-05-14T19:54:24.580Z,10.70
2023-05-14T19:56:52.564Z,9.40
2023-05-14T19:59:20.468Z,6.70
2023-05-14T20:01:48.403Z,6.40
2023-05-14T20:04:16.412Z,6.70
2023-05-14T20:06:45.582Z,6.50
2023-05-14T20:09:16.445Z,6.90
2023-05-14T20:11:44.211Z,6.90
2023-05-14T20:14:12.347Z,5.90
2023-05-14T20:16:40.354Z,6.60
2023-05-14T20:19:08.336Z,7.60
2023-05-14T20:21:36.440Z,6.50
2023-05-14T20:24:04.692Z,7.60
2023-05-14T20:26:32.591Z,6.60
2023-05-14T20:29:00.886Z,7.50
2023-05-14T20:31:29.112Z,6.80
2023-05-14T20:33:57.015Z,7.30
2023-05-14T20:36:25.820Z,8.80
2023-05-14T20:38:53.712Z,8.90
2023-05-14T20:41:22.359Z,8.20
2023-05-14T20:43:50.184Z,10.30
2023-05-14T20:46:18.008Z,8.20
2023-05-14T20:48:47.257Z,10.10
2023-05-14T20:51:15.005Z,10.60
2023-05-14T20:53:42.964Z,9.90
2023-05-14T20:56:11.107Z,10.70
2023-05-14T20:58:38.849Z,10.00
2023-05-14T21:01:08.302Z,8.60
2023-05-14T21:03:36.434Z,9.50
2023-05-14T21:06:04.400Z,11.60
2023-05-14T21:08:33.145Z,9.30
2023-05-14T21:11:00.976Z,10.70
2023-05-14T21:13:28.802Z,9.60
2023-05-14T21:15:56.712Z,9.20
2023-05-14T21:18:27.139Z,8.80
2023-05-14T21:20:55.010Z,9.90
2023-05-14T21:23:22.956Z,11.10
2023-05-14T21:25:51.174Z,10.20
2023-05-14T21:28:18.977Z,14.90
2023-05-14T21:30:46.882Z,10.70
2023-05-14T21:33:15.679Z,11.90
2023-05-14T21:35:43.441Z,11.60
2023-05-14T21:38:14.422Z,9.80
2023-05-14T21:40:42.425Z,10.10
2023-05-14T21:43:10.306Z,11.30
2023-05-14T21:45:40.794Z,10.80
2023-05-14T21:48:08.892Z,13.20
2023-05-14T21:50:37.195Z,13.40
2023-05-14T21:53:05.204Z,9.80
2023-05-14T21:55:33.043Z,11.40
2023-05-14T21:58:00.971Z,11.40
2023-05-14T22:00:29.107Z,10.30
2023-05-14T22:02:56.839Z,12.00
2023-05-14T22:05:24.918Z,13.60
2023-05-14T22:07:52.956Z,11.70
2023-05-14T22:10:20.880Z,12.90
2023-05-14T22:12:57.225Z,11.10
2023-05-14T22:15:25.220Z,12.40
2023-05-14T22:17:53.308Z,11.10
2023-05-14T22:20:21.516Z,12.10
2023-05-14T22:22:50.045Z,12.50
2023-05-14T22:25:17.789Z,11.80
2023-05-14T22:27:45.531Z,13.40
2023-05-14T22:30:13.397Z,11.40
2023-05-14T22:32:41.370Z,16.80
2023-05-14T22:35:09.344Z,11.10
2023-05-14T22:37:37.257Z,11.50
2023-05-14T22:40:05.729Z,11.20
2023-05-14T22:42:33.657Z,11.10
2023-05-14T22:45:01.483Z,11.30
2023-05-14T22:47:29.618Z,11.00
2023-05-14T22:49:57.466Z,11.80
2023-05-14T22:52:26.095Z,14.80
2023-05-14T22:54:54.777Z,14.30
2023-05-14T22:57:23.662Z,15.00
2023-05-14T23:00:06.866Z,13.00
2023-05-14T23:02:34.839Z,11.10
2023-05-14T23:05:02.869Z,11.50
2023-05-14T23:07:30.784Z,14.00
2023-05-14T23:09:58.452Z,12.90
2023-05-14T23:12:26.277Z,13.50
2023-05-14T23:14:54.199Z,13.90
2023-05-14T23:17:22.037Z,13.10
2023-05-14T23:19:50.056Z,11.70
2023-05-14T23:22:17.931Z,11.50
2023-05-14T23:24:45.826Z,12.10
2023-05-14T23:27:13.688Z,12.60
2023-05-14T23:29:41.392Z,14.50
2023-05-14T23:32:09.401Z,14.80
2023-05-14T23:34:37.298Z,16.40
2023-05-14T23:37:05.384Z,15.30
2023-05-14T23:39:33.450Z,16.40
2023-05-14T23:42:01.186Z,14.70
2023-05-14T23:44:29.060Z,16.40
2023-05-14T23:46:56.851Z,16.40
2023-05-14T23:49:24.733Z,15.30
2023-05-14T23:51:52.727Z,16.50
2023-05-14T23:54:21.300Z,15.60
2023-05-14T23:56:49.221Z,16.70
2023-05-14T23:59:16.982Z,16.40
